Terminal Aerodrome Forecast
Issued by NWS Albany, NY

Home | Current Version | Previous Version | Text Only | Print | Product List | Glossary On
Versions: 1 2 3 4 5 6 7 8 9 10 11 12 13 14 15 16 17 18 19 20 21 22 23 24 25 26 27 28 29 30 31 32 33 34 35 36 37 38 39 40
501
FTUS41 KALY 161134
TAFGFL
TAF
KGFL 161134Z 1612/1712 20005KT P6SM OVC025
      TEMPO 1613/1615 SCT025 OVC040
     FM161500 21011G28KT P6SM SCT025 OVC040
     FM161800 25014G24KT P6SM VCSH BKN040
     FM162100 28013G25KT P6SM BKN050
     FM170000 32012G18KT P6SM SCT050 SCT250
     FM170500 36005KT P6SM SKC=

USA.gov is the U.S. government's official web portal to all federal, state and local government web resources and services.